createdAt,value
2023-04-06T00:00:10.063Z,2.60
2023-04-06T00:02:37.059Z,2.70
2023-04-06T00:05:03.963Z,2.70
2023-04-06T00:07:30.966Z,2.70
2023-04-06T00:09:57.733Z,2.80
2023-04-06T00:12:24.434Z,2.90
2023-04-06T00:14:51.291Z,2.90
2023-04-06T00:17:18.233Z,3.00
2023-04-06T00:19:44.809Z,2.90
2023-04-06T00:22:11.829Z,2.90
2023-04-06T00:24:38.469Z,2.80
2023-04-06T00:27:05.116Z,2.70
2023-04-06T00:29:31.683Z,2.70
2023-04-06T00:31:58.326Z,2.70
2023-04-06T00:34:24.963Z,2.60
2023-04-06T00:36:51.542Z,2.60
2023-04-06T00:39:20.516Z,2.50
2023-04-06T00:41:51.094Z,2.50
2023-04-06T00:44:18.137Z,2.50
2023-04-06T00:46:44.845Z,2.40
2023-04-06T00:49:12.171Z,2.30
2023-04-06T00:51:38.760Z,2.40
2023-04-06T00:54:06.048Z,2.40
2023-04-06T00:56:36.421Z,2.30
2023-04-06T00:59:03.127Z,2.30
2023-04-06T01:01:30.557Z,2.30
2023-04-06T01:04:03.701Z,2.20
2023-04-06T01:06:33.069Z,2.20
2023-04-06T01:09:01.985Z,2.20
2023-04-06T01:11:29.216Z,2.10
2023-04-06T01:13:56.548Z,2.10
2023-04-06T01:16:43.486Z,2.00
2023-04-06T01:19:14.214Z,2.00
2023-04-06T01:21:51.524Z,2.00
2023-04-06T01:24:38.241Z,1.90
2023-04-06T01:27:09.985Z,1.80
2023-04-06T01:29:59.763Z,1.80
2023-04-06T01:32:42.253Z,1.80
2023-04-06T01:35:11.820Z,1.70
2023-04-06T01:37:45.692Z,1.80
2023-04-06T01:40:17.313Z,1.70
2023-04-06T01:42:48.690Z,1.60
2023-04-06T01:45:22.664Z,1.60
2023-04-06T01:47:51.928Z,1.60
2023-04-06T01:50:21.425Z,1.60
2023-04-06T01:52:48.195Z,1.60
2023-04-06T01:55:15.379Z,1.60
2023-04-06T01:58:01.630Z,1.50
2023-04-06T02:00:35.196Z,1.50
2023-04-06T02:03:02.228Z,1.50
2023-04-06T02:05:31.552Z,1.50
2023-04-06T02:07:59.244Z,1.40
2023-04-06T02:10:33.987Z,1.50
2023-04-06T02:13:06.435Z,1.50
2023-04-06T02:15:33.726Z,1.40
2023-04-06T02:18:00.460Z,1.30
2023-04-06T02:20:27.346Z,1.30
2023-04-06T02:22:53.978Z,1.20
2023-04-06T02:25:21.041Z,1.20
2023-04-06T02:27:47.690Z,1.20
2023-04-06T02:30:14.260Z,1.20
2023-04-06T02:32:41.108Z,1.20
2023-04-06T02:35:08.456Z,1.20
2023-04-06T02:37:35.802Z,1.20
2023-04-06T02:40:02.432Z,1.30
2023-04-06T02:42:31.042Z,1.20
2023-04-06T02:44:58.003Z,1.20
2023-04-06T02:47:29.346Z,1.10
2023-04-06T02:49:56.007Z,1.20
2023-04-06T02:52:22.751Z,1.20
2023-04-06T02:54:51.996Z,1.20
2023-04-06T02:57:24.635Z,1.20
2023-04-06T02:59:51.679Z,1.10
2023-04-06T03:02:24.345Z,1.10
2023-04-06T03:04:52.076Z,1.10
2023-04-06T03:07:25.609Z,1.10
2023-04-06T03:09:52.628Z,1.10
2023-04-06T03:12:19.934Z,1.10
2023-04-06T03:15:07.116Z,1.10
2023-04-06T03:17:35.001Z,1.10
2023-04-06T03:20:05.481Z,1.10
2023-04-06T03:22:33.557Z,1.00
2023-04-06T03:25:03.553Z,1.00
2023-04-06T03:27:32.628Z,1.10
2023-04-06T03:30:01.406Z,1.10
2023-04-06T03:32:33.578Z,1.00
2023-04-06T03:35:00.369Z,1.00
2023-04-06T03:37:26.947Z,1.00
2023-04-06T03:39:58.499Z,1.00
2023-04-06T03:42:25.782Z,1.00
2023-04-06T03:44:57.364Z,1.00
2023-04-06T03:47:24.513Z,0.90
2023-04-06T03:49:57.825Z,0.90
2023-04-06T03:52:24.454Z,0.90
2023-04-06T03:54:52.480Z,0.90
2023-04-06T03:57:19.049Z,0.80
2023-04-06T03:59:45.889Z,0.80
2023-04-06T04:02:12.520Z,0.80
2023-04-06T04:08:07.711Z,0.70
2023-04-06T04:10:34.327Z,0.70
2023-04-06T04:13:00.900Z,0.70
2023-04-06T04:15:27.612Z,0.70
2023-04-06T04:17:54.204Z,0.70
2023-04-06T04:20:20.864Z,0.70
2023-04-06T04:22:47.428Z,0.70
2023-04-06T04:25:14.051Z,0.60
2023-04-06T04:27:45.786Z,0.60
2023-04-06T04:30:12.695Z,0.60
2023-04-06T04:32:39.392Z,0.50
2023-04-06T04:35:08.967Z,0.60
2023-04-06T04:37:38.165Z,0.50
2023-04-06T04:40:05.372Z,0.50
2023-04-06T04:42:41.593Z,0.60
2023-04-06T04:45:13.832Z,0.60
2023-04-06T04:47:42.101Z,0.60
2023-04-06T04:50:10.535Z,0.60
2023-04-06T04:52:40.800Z,0.60
2023-04-06T04:55:20.852Z,0.60
2023-04-06T04:57:51.376Z,0.70
2023-04-06T05:00:22.304Z,0.70
2023-04-06T05:02:50.323Z,0.70
2023-04-06T05:05:21.311Z,0.70
2023-04-06T05:07:47.945Z,0.70
2023-04-06T05:10:25.303Z,0.70
2023-04-06T05:12:57.036Z,0.70
2023-04-06T05:15:23.732Z,0.70
2023-04-06T05:17:55.130Z,0.70
2023-04-06T05:20:26.784Z,0.80
2023-04-06T05:22:53.399Z,0.80
2023-04-06T05:25:20.430Z,0.80
2023-04-06T05:27:50.510Z,0.80
2023-04-06T05:30:28.958Z,0.80
2023-04-06T05:32:56.205Z,0.90
2023-04-06T05:35:25.617Z,1.00
2023-04-06T05:37:56.555Z,1.30
2023-04-06T05:40:25.683Z,1.70
2023-04-06T05:42:52.764Z,2.00
2023-04-06T05:45:21.625Z,2.10
2023-04-06T05:47:52.705Z,2.20
2023-04-06T05:50:24.434Z,2.40
2023-04-06T05:52:51.968Z,2.70
2023-04-06T05:55:21.976Z,2.70
2023-04-06T05:57:55.415Z,2.90
2023-04-06T06:00:22.214Z,3.00
2023-04-06T06:03:00.081Z,3.00
2023-04-06T06:05:30.016Z,3.20
2023-04-06T06:08:03.169Z,3.10
2023-04-06T06:10:30.846Z,3.20
2023-04-06T06:12:57.748Z,3.20
2023-04-06T06:15:24.902Z,3.60
2023-04-06T06:17:52.767Z,3.80
2023-04-06T06:20:19.453Z,3.60
2023-04-06T06:22:50.925Z,3.90
2023-04-06T06:25:22.282Z,3.90
2023-04-06T06:27:49.907Z,4.00
2023-04-06T06:30:20.904Z,4.00
2023-04-06T06:32:49.556Z,3.90
2023-04-06T06:35:16.308Z,4.40
2023-04-06T06:37:43.056Z,4.60
2023-04-06T06:40:14.226Z,4.70
2023-04-06T06:42:42.230Z,4.60
2023-04-06T06:45:17.707Z,4.70
2023-04-06T06:47:44.392Z,4.80
2023-04-06T06:50:11.839Z,5.10
2023-04-06T06:52:38.423Z,4.80
2023-04-06T06:55:05.334Z,4.90
2023-04-06T06:57:32.093Z,5.00
2023-04-06T07:00:00.870Z,4.90
2023-04-06T07:02:29.442Z,5.40
2023-04-06T07:04:56.908Z,5.50
2023-04-06T07:07:23.528Z,6.10
2023-04-06T07:09:50.456Z,6.20
2023-04-06T07:12:17.554Z,6.80
2023-04-06T07:14:44.252Z,6.70
2023-04-06T07:17:13.024Z,7.60
2023-04-06T07:19:40.408Z,7.10
2023-04-06T07:22:07.366Z,7.70
2023-04-06T07:24:33.972Z,7.60
2023-04-06T07:27:01.558Z,8.00
2023-04-06T07:29:28.910Z,7.90
2023-04-06T07:31:56.197Z,7.80
2023-04-06T07:34:23.063Z,8.50
2023-04-06T07:36:50.027Z,8.30
2023-04-06T07:39:16.725Z,8.80
2023-04-06T07:41:43.380Z,9.10
2023-04-06T07:44:10.245Z,9.10
2023-04-06T07:46:38.062Z,9.80
2023-04-06T07:49:05.538Z,10.10
2023-04-06T07:51:36.318Z,9.90
2023-04-06T07:54:03.084Z,10.60
2023-04-06T07:56:29.705Z,9.90
2023-04-06T07:58:59.656Z,10.40
2023-04-06T08:01:27.091Z,11.00
2023-04-06T08:03:53.736Z,10.40
2023-04-06T08:06:20.411Z,11.00
2023-04-06T08:08:46.999Z,11.40
2023-04-06T08:11:13.609Z,11.00
2023-04-06T08:13:40.179Z,10.60
2023-04-06T08:16:07.204Z,10.50
2023-04-06T08:18:33.789Z,10.60
2023-04-06T08:21:00.378Z,9.80
2023-04-06T08:23:27.666Z,9.90
2023-04-06T08:25:55.279Z,10.70
2023-04-06T08:28:22.201Z,10.90
2023-04-06T08:30:49.101Z,11.50
2023-04-06T08:33:15.750Z,12.20
2023-04-06T08:35:42.399Z,11.90
2023-04-06T08:38:09.044Z,11.80
2023-04-06T08:40:38.899Z,12.30
2023-04-06T08:43:09.453Z,13.30
2023-04-06T08:45:36.585Z,13.40
2023-04-06T08:48:03.654Z,13.60
2023-04-06T08:50:30.568Z,14.90
2023-04-06T08:52:57.624Z,13.30
2023-04-06T08:55:24.760Z,12.10
2023-04-06T08:57:54.382Z,13.20
2023-04-06T09:00:21.457Z,12.80
2023-04-06T09:02:50.025Z,12.60
2023-04-06T09:05:16.984Z,12.50
2023-04-06T09:07:43.686Z,11.90
2023-04-06T09:10:10.385Z,11.90
2023-04-06T09:12:37.143Z,12.40
2023-04-06T09:15:04.043Z,13.80
2023-04-06T09:17:33.341Z,13.90
2023-04-06T09:20:00.699Z,14.10
2023-04-06T09:22:36.146Z,13.60
2023-04-06T09:25:02.863Z,14.40
2023-04-06T09:27:33.538Z,14.10
2023-04-06T09:30:18.891Z,14.40
2023-04-06T09:32:47.209Z,13.10
2023-04-06T09:35:13.899Z,13.70
2023-04-06T09:37:40.574Z,14.50
2023-04-06T09:40:08.284Z,14.40
2023-04-06T09:42:35.752Z,14.40
2023-04-06T09:45:05.746Z,15.30
2023-04-06T09:47:34.152Z,15.10
2023-04-06T09:50:02.152Z,14.10
2023-04-06T09:52:33.225Z,14.90
2023-04-06T09:55:04.975Z,14.20
2023-04-06T09:57:50.466Z,14.10
2023-04-06T10:00:20.152Z,14.90
2023-04-06T10:03:07.763Z,14.80
2023-04-06T10:05:43.082Z,14.50
2023-04-06T10:08:10.943Z,14.70
2023-04-06T10:10:37.743Z,14.30
2023-04-06T10:13:08.350Z,14.80
2023-04-06T10:15:34.984Z,13.90
2023-04-06T10:18:02.320Z,14.20
2023-04-06T10:20:31.516Z,14.10
2023-04-06T10:23:17.433Z,13.60
2023-04-06T10:25:54.760Z,14.50
2023-04-06T10:28:21.480Z,14.30
2023-04-06T10:30:48.508Z,14.50
2023-04-06T10:33:19.503Z,14.20
2023-04-06T10:35:46.168Z,14.90
2023-04-06T10:38:15.052Z,15.30
2023-04-06T10:40:44.030Z,15.00
2023-04-06T10:43:11.591Z,14.80
2023-04-06T10:45:38.884Z,14.60
2023-04-06T10:48:15.923Z,14.10
2023-04-06T10:50:47.649Z,14.10
2023-04-06T10:53:21.757Z,15.10
2023-04-06T10:55:49.981Z,16.10
2023-04-06T10:58:16.585Z,15.50
2023-04-06T11:00:50.612Z,14.90
2023-04-06T11:03:18.111Z,16.00
2023-04-06T11:05:48.666Z,16.80
2023-04-06T11:08:34.019Z,16.60
2023-04-06T11:11:17.092Z,17.00
2023-04-06T11:13:44.734Z,15.90
2023-04-06T11:16:18.418Z,15.20
2023-04-06T11:19:04.167Z,14.70
2023-04-06T11:21:49.936Z,14.60
2023-04-06T11:24:17.811Z,15.50
2023-04-06T11:26:45.716Z,15.30
2023-04-06T11:29:13.136Z,15.30
2023-04-06T11:31:43.983Z,15.80
2023-04-06T11:34:14.291Z,15.60
2023-04-06T11:36:42.197Z,15.30
2023-04-06T11:39:08.922Z,15.00
2023-04-06T11:41:35.529Z,15.50
2023-04-06T11:44:03.788Z,14.90
2023-04-06T11:46:30.588Z,14.70
2023-04-06T11:49:01.495Z,14.30
2023-04-06T11:51:28.322Z,14.50
2023-04-06T11:53:55.358Z,14.30
2023-04-06T11:56:31.370Z,15.10
2023-04-06T11:58:59.493Z,15.00
2023-04-06T12:01:26.547Z,15.80
2023-04-06T12:03:53.650Z,15.90
2023-04-06T12:06:20.734Z,15.50
2023-04-06T12:08:47.382Z,15.60
2023-04-06T12:11:14.050Z,15.40
2023-04-06T12:13:40.770Z,15.20
2023-04-06T12:16:07.415Z,15.80
2023-04-06T12:18:34.192Z,16.10
2023-04-06T12:21:00.873Z,15.50
2023-04-06T12:23:27.638Z,15.20
2023-04-06T12:25:55.624Z,15.10
2023-04-06T12:28:24.126Z,14.80
2023-04-06T12:30:51.767Z,14.70
2023-04-06T12:33:18.801Z,16.40
2023-04-06T12:35:45.673Z,16.20
2023-04-06T12:38:12.383Z,16.50
2023-04-06T12:40:39.653Z,17.20
2023-04-06T12:43:06.688Z,17.30
2023-04-06T12:45:33.390Z,17.70
2023-04-06T12:48:00.021Z,17.30
2023-04-06T12:50:27.627Z,17.90
2023-04-06T12:52:54.253Z,18.10
2023-04-06T12:55:21.731Z,17.20
2023-04-06T12:57:48.352Z,17.70
2023-04-06T13:00:15.821Z,17.20
2023-04-06T13:02:47.792Z,16.90
2023-04-06T13:05:19.401Z,17.50
2023-04-06T13:07:46.765Z,18.20
2023-04-06T13:10:13.410Z,17.70
2023-04-06T13:12:40.284Z,17.30
2023-04-06T13:15:07.096Z,18.10
2023-04-06T13:17:33.746Z,17.90
2023-04-06T13:20:00.582Z,18.50
2023-04-06T13:22:27.588Z,17.60
2023-04-06T13:24:54.159Z,17.20
2023-04-06T13:27:21.022Z,16.40
2023-04-06T13:29:47.669Z,17.30
2023-04-06T13:32:14.484Z,16.40
2023-04-06T13:34:45.577Z,17.70
2023-04-06T13:37:13.229Z,18.10
2023-04-06T13:39:40.418Z,18.10
2023-04-06T13:42:07.650Z,19.40
2023-04-06T13:44:34.307Z,19.20
2023-04-06T13:47:00.962Z,17.80
2023-04-06T13:49:30.070Z,16.80
2023-04-06T13:51:56.737Z,17.10
2023-04-06T13:54:23.365Z,17.20
2023-04-06T13:56:49.951Z,16.30
2023-04-06T13:59:16.723Z,17.10
2023-04-06T14:01:43.505Z,17.80
2023-04-06T14:04:10.285Z,17.30
2023-04-06T14:06:37.939Z,18.00
2023-04-06T14:09:04.885Z,18.20
2023-04-06T14:11:32.668Z,17.90
2023-04-06T14:13:59.917Z,17.90
2023-04-06T14:16:27.616Z,18.20
2023-04-06T14:18:54.407Z,18.70
2023-04-06T14:21:21.129Z,17.40
2023-04-06T14:23:47.740Z,17.40
2023-04-06T14:26:14.909Z,17.00
2023-04-06T14:28:42.308Z,16.50
2023-04-06T14:31:14.093Z,17.20
2023-04-06T14:33:40.974Z,17.10
2023-04-06T14:36:07.915Z,17.40
2023-04-06T14:38:34.879Z,17.50
2023-04-06T14:41:02.252Z,17.50
2023-04-06T14:43:28.867Z,17.80
2023-04-06T14:45:55.713Z,17.70
2023-04-06T14:48:22.353Z,17.40
2023-04-06T14:50:58.401Z,17.20
2023-04-06T14:53:25.397Z,17.30
2023-04-06T14:55:54.967Z,16.70
2023-04-06T14:58:22.121Z,16.60
2023-04-06T15:00:48.728Z,16.50
2023-04-06T15:03:15.572Z,16.80
2023-04-06T15:05:42.995Z,16.60
2023-04-06T15:08:14.617Z,16.80
2023-04-06T15:10:41.335Z,16.90
2023-04-06T15:13:07.944Z,17.10
2023-04-06T15:15:34.548Z,17.60
2023-04-06T15:18:03.472Z,17.40
2023-04-06T15:20:30.609Z,17.10
2023-04-06T15:22:57.807Z,17.30
2023-04-06T15:25:24.430Z,17.00
2023-04-06T15:27:51.252Z,16.70
2023-04-06T15:30:17.854Z,16.60
2023-04-06T15:32:52.773Z,16.40
2023-04-06T15:35:19.539Z,16.40
2023-04-06T15:37:46.317Z,16.20
2023-04-06T15:40:14.425Z,15.90
2023-04-06T15:42:43.176Z,16.00
2023-04-06T15:45:12.543Z,16.10
2023-04-06T15:47:39.682Z,15.90
2023-04-06T15:50:06.621Z,15.60
2023-04-06T15:52:33.200Z,15.70
2023-04-06T15:54:59.871Z,15.60
2023-04-06T15:57:27.624Z,15.70
2023-04-06T15:59:56.005Z,15.60
2023-04-06T16:02:26.019Z,15.70
2023-04-06T16:04:56.542Z,15.60
2023-04-06T16:07:23.314Z,15.30
2023-04-06T16:09:52.831Z,15.00
2023-04-06T16:12:19.920Z,15.00
2023-04-06T16:14:46.662Z,15.00
2023-04-06T16:17:13.742Z,14.90
2023-04-06T16:19:40.810Z,14.90
2023-04-06T16:22:08.487Z,14.90
2023-04-06T16:24:35.226Z,14.90
2023-04-06T16:27:02.222Z,14.80
2023-04-06T16:29:29.759Z,14.70
2023-04-06T16:31:56.552Z,14.80
2023-04-06T16:34:23.292Z,14.90
2023-04-06T16:36:50.089Z,14.80
2023-04-06T16:39:17.197Z,14.70
2023-04-06T16:41:43.791Z,14.60
2023-04-06T16:44:11.252Z,14.70
2023-04-06T16:46:38.859Z,14.70
2023-04-06T16:49:08.634Z,14.50
2023-04-06T16:51:36.838Z,14.30
2023-04-06T16:54:03.681Z,14.20
2023-04-06T16:56:31.535Z,14.10
2023-04-06T16:58:58.152Z,14.10
2023-04-06T17:01:26.333Z,14.00
2023-04-06T17:03:53.583Z,13.90
2023-04-06T17:06:20.667Z,13.80
2023-04-06T17:08:48.005Z,13.90
2023-04-06T17:11:17.216Z,14.00
2023-04-06T17:13:49.084Z,13.90
2023-04-06T17:16:15.978Z,14.10
2023-04-06T17:18:42.580Z,13.90
2023-04-06T17:21:14.556Z,13.90
2023-04-06T17:23:41.633Z,13.80
2023-04-06T17:26:08.600Z,13.70
2023-04-06T17:28:35.635Z,13.60
2023-04-06T17:31:02.385Z,13.50
2023-04-06T17:33:29.289Z,13.40
2023-04-06T17:35:55.982Z,13.40
2023-04-06T17:38:23.884Z,13.20
2023-04-06T17:40:50.742Z,13.10
2023-04-06T17:43:17.870Z,13.00
2023-04-06T17:45:44.458Z,12.90
2023-04-06T17:48:11.052Z,12.90
2023-04-06T17:50:39.018Z,12.70
2023-04-06T17:53:06.092Z,12.80
2023-04-06T17:55:32.688Z,12.70
2023-04-06T17:57:59.260Z,12.60
2023-04-06T18:00:25.909Z,12.50
2023-04-06T18:02:54.473Z,12.60
2023-04-06T18:05:21.561Z,12.40
2023-04-06T18:07:48.478Z,12.30
2023-04-06T18:10:15.448Z,12.30
2023-04-06T18:12:42.334Z,12.20
2023-04-06T18:15:08.978Z,12.20
2023-04-06T18:17:35.833Z,12.10
2023-04-06T18:20:02.941Z,12.00
2023-04-06T18:22:29.561Z,11.90
2023-04-06T18:24:56.185Z,11.80
2023-04-06T18:27:22.851Z,11.70
2023-04-06T18:29:49.481Z,11.60
2023-04-06T18:32:16.638Z,11.60
2023-04-06T18:34:43.370Z,11.50
2023-04-06T18:37:12.500Z,11.50
2023-04-06T18:39:39.131Z,11.50
2023-04-06T18:42:05.760Z,11.60
2023-04-06T18:44:32.387Z,11.60
2023-04-06T18:46:59.015Z,11.60
2023-04-06T18:49:26.088Z,11.50
2023-04-06T18:51:53.621Z,11.50
2023-04-06T18:54:20.731Z,11.50
2023-04-06T18:56:48.125Z,11.50
2023-04-06T18:59:17.251Z,11.50
2023-04-06T19:01:46.600Z,11.40
2023-04-06T19:04:13.582Z,11.40
2023-04-06T19:06:40.359Z,11.40
2023-04-06T19:09:07.566Z,11.30
2023-04-06T19:11:34.216Z,11.20
2023-04-06T19:14:00.857Z,11.00
2023-04-06T19:16:28.444Z,11.00
2023-04-06T19:18:55.453Z,10.90
2023-04-06T19:21:22.915Z,10.90
2023-04-06T19:23:50.706Z,10.90
2023-04-06T19:26:18.836Z,10.80
2023-04-06T19:28:46.126Z,10.80
2023-04-06T19:31:14.335Z,10.70
2023-04-06T19:33:41.038Z,10.60
2023-04-06T19:36:08.158Z,10.60
2023-04-06T19:38:35.082Z,10.50
2023-04-06T19:41:02.191Z,10.50
2023-04-06T19:43:28.765Z,10.50
2023-04-06T19:45:55.548Z,10.50
2023-04-06T19:48:22.210Z,10.50
2023-04-06T19:50:48.920Z,10.60
2023-04-06T19:53:15.618Z,10.60
2023-04-06T19:55:42.197Z,10.60
2023-04-06T19:58:08.789Z,10.60
2023-04-06T20:00:35.421Z,10.60
2023-04-06T20:03:02.434Z,10.50
2023-04-06T20:05:29.214Z,10.40
2023-04-06T20:07:55.907Z,10.30
2023-04-06T20:10:22.539Z,10.30
2023-04-06T20:12:50.466Z,10.40
2023-04-06T20:15:17.267Z,10.40
2023-04-06T20:17:43.917Z,10.50
2023-04-06T20:20:11.528Z,10.60
2023-04-06T20:22:38.305Z,10.60
2023-04-06T20:25:05.126Z,10.70
2023-04-06T20:27:31.672Z,10.70
2023-04-06T20:29:58.419Z,10.70
2023-04-06T20:32:25.564Z,10.70
2023-04-06T20:34:52.583Z,10.70
2023-04-06T20:37:21.208Z,10.70
2023-04-06T20:39:48.310Z,10.60
2023-04-06T20:42:16.398Z,10.60
2023-04-06T20:44:43.030Z,10.60
2023-04-06T20:47:09.622Z,10.60
2023-04-06T20:49:36.245Z,10.60
2023-04-06T20:52:03.060Z,10.60
2023-04-06T20:54:29.870Z,10.60
2023-04-06T20:57:00.417Z,10.60
2023-04-06T20:59:27.807Z,10.50
2023-04-06T21:01:54.550Z,10.50
2023-04-06T21:04:22.459Z,10.40
2023-04-06T21:06:49.669Z,10.40
2023-04-06T21:09:16.439Z,10.40
2023-04-06T21:11:43.039Z,10.30
2023-04-06T21:14:09.598Z,10.30
2023-04-06T21:16:36.457Z,10.20
2023-04-06T21:19:03.277Z,10.20
2023-04-06T21:21:29.971Z,10.20
2023-04-06T21:23:58.318Z,10.10
2023-04-06T21:26:24.972Z,10.10
2023-04-06T21:28:51.646Z,10.00
2023-04-06T21:31:19.955Z,10.00
2023-04-06T21:33:47.085Z,10.00
2023-04-06T21:36:13.769Z,10.00
2023-04-06T21:38:40.512Z,10.00
2023-04-06T21:41:07.255Z,9.90
2023-04-06T21:43:33.970Z,10.00
2023-04-06T21:46:00.643Z,10.00
2023-04-06T21:48:27.624Z,10.00
2023-04-06T21:50:54.206Z,10.00
2023-04-06T21:53:20.842Z,9.90
2023-04-06T21:55:47.776Z,9.90
2023-04-06T21:58:14.623Z,9.90
2023-04-06T22:00:41.212Z,9.90
2023-04-06T22:03:08.144Z,9.80
2023-04-06T22:05:36.166Z,9.80
2023-04-06T22:08:02.831Z,9.80
2023-04-06T22:10:29.926Z,9.80
2023-04-06T22:12:56.509Z,9.70
2023-04-06T22:15:23.124Z,9.70
2023-04-06T22:17:49.794Z,9.60
2023-04-06T22:20:16.760Z,9.50
2023-04-06T22:22:43.392Z,9.40
2023-04-06T22:25:10.178Z,9.30
2023-04-06T22:27:36.927Z,9.20
2023-04-06T22:30:04.182Z,9.20
2023-04-06T22:32:30.948Z,9.10
2023-04-06T22:34:57.558Z,9.10
2023-04-06T22:37:24.158Z,9.10
2023-04-06T22:39:50.796Z,9.10
2023-04-06T22:42:17.368Z,9.10
2023-04-06T22:44:43.994Z,9.10
2023-04-06T22:47:10.855Z,9.10
2023-04-06T22:49:37.575Z,9.10
2023-04-06T22:52:04.145Z,9.10
2023-04-06T22:54:31.092Z,9.10
2023-04-06T22:56:58.032Z,9.10
2023-04-06T22:59:24.639Z,9.10
2023-04-06T23:01:51.305Z,8.90
2023-04-06T23:04:18.428Z,8.90
2023-04-06T23:06:45.515Z,8.90
2023-04-06T23:09:12.411Z,8.90
2023-04-06T23:11:39.002Z,8.90
2023-04-06T23:14:05.560Z,9.00
2023-04-06T23:16:32.195Z,8.90
2023-04-06T23:18:58.781Z,8.90
2023-04-06T23:21:26.070Z,8.90
2023-04-06T23:23:52.750Z,8.80
2023-04-06T23:26:19.369Z,8.80
2023-04-06T23:28:45.988Z,8.70
2023-04-06T23:31:12.598Z,8.70
2023-04-06T23:33:39.181Z,8.70
2023-04-06T23:36:05.791Z,8.60
2023-04-06T23:38:32.354Z,8.50
2023-04-06T23:40:58.912Z,8.50
2023-04-06T23:43:25.735Z,8.50
2023-04-06T23:45:52.496Z,8.50
2023-04-06T23:48:19.063Z,8.40
2023-04-06T23:50:45.763Z,8.40
2023-04-06T23:53:12.813Z,8.40
2023-04-06T23:55:39.452Z,8.40
2023-04-06T23:58:06.462Z,8.50
